sensor_id;sensor_type;location;lat;lon;timestamp;pressure;altitude;pressure_sealevel;temperature;humidity
28628;BME280;15815;46.760;19.604;2023-03-13T00:00:03;100601.66;;;2.18;53.15
28628;BME280;15815;46.760;19.604;2023-03-13T00:02:36;100664.53;;;2.47;53.77
28628;BME280;15815;46.760;19.604;2023-03-13T00:05:34;100650.47;;;2.31;53.24
28628;BME280;15815;46.760;19.604;2023-03-13T00:08:11;100642.38;;;2.26;53.59
28628;BME280;15815;46.760;19.604;2023-03-13T00:10:48;100684.56;;;2.53;53.38
28628;BME280;15815;46.760;19.604;2023-03-13T00:13:33;100628.72;;;2.21;54.27
28628;BME280;15815;46.760;19.604;2023-03-13T00:16:09;100641.69;;;2.29;54.06
28628;BME280;15815;46.760;19.604;2023-03-13T00:18:43;100681.91;;;2.56;54.39
28628;BME280;15815;46.760;19.604;2023-03-13T00:21:19;100658.50;;;2.45;54.49
28628;BME280;15815;46.760;19.604;2023-03-13T00:24:11;100619.16;;;2.31;54.32
28628;BME280;15815;46.760;19.604;2023-03-13T00:26:42;100635.28;;;2.50;54.12
28628;BME280;15815;46.760;19.604;2023-03-13T00:29:11;100661.09;;;2.62;54.61
28628;BME280;15815;46.760;19.604;2023-03-13T00:31:36;100661.22;;;2.66;54.69
28628;BME280;15815;46.760;19.604;2023-03-13T00:36:49;100618.38;;;2.42;54.67
28628;BME280;15815;46.760;19.604;2023-03-13T00:39:17;100626.75;;;2.55;54.57
28628;BME280;15815;46.760;19.604;2023-03-13T00:41:45;100641.69;;;2.62;54.91
28628;BME280;15815;46.760;19.604;2023-03-13T00:44:13;100621.66;;;2.57;55.29
28628;BME280;15815;46.760;19.604;2023-03-13T00:46:59;100638.44;;;2.72;54.72
28628;BME280;15815;46.760;19.604;2023-03-13T00:49:30;100649.00;;;2.79;54.69
28628;BME280;15815;46.760;19.604;2023-03-13T00:52:17;100660.34;;;2.98;54.85
28628;BME280;15815;46.760;19.604;2023-03-13T01:07:42;100672.91;;;3.29;54.08
28628;BME280;15815;46.760;19.604;2023-03-13T01:10:45;100668.97;;;3.30;54.66
28628;BME280;15815;46.760;19.604;2023-03-13T01:13:34;100665.16;;;3.34;54.29
28628;BME280;15815;46.760;19.604;2023-03-13T01:23:17;100612.34;;;3.22;54.94
28628;BME280;15815;46.760;19.604;2023-03-13T01:29:09;100592.44;;;3.20;54.86
28628;BME280;15815;46.760;19.604;2023-03-13T01:31:57;100617.91;;;3.34;55.50
28628;BME280;15815;46.760;19.604;2023-03-13T01:37:08;100592.66;;;3.27;55.68
28628;BME280;15815;46.760;19.604;2023-03-13T01:40:01;100651.25;;;3.59;55.98
28628;BME280;15815;46.760;19.604;2023-03-13T01:42:35;100602.41;;;3.33;55.70
28628;BME280;15815;46.760;19.604;2023-03-13T01:52:07;100586.16;;;3.48;55.35
28628;BME280;15815;46.760;19.604;2023-03-13T01:54:55;100635.44;;;3.75;54.94
28628;BME280;15815;46.760;19.604;2023-03-13T01:57:33;100607.34;;;3.52;55.03
28628;BME280;15815;46.760;19.604;2023-03-13T02:00:10;100640.34;;;3.66;55.86
28628;BME280;15815;46.760;19.604;2023-03-13T02:02:43;100603.88;;;3.43;55.58
28628;BME280;15815;46.760;19.604;2023-03-13T02:05:22;100613.50;;;3.46;55.95
28628;BME280;15815;46.760;19.604;2023-03-13T02:08:09;100580.19;;;3.21;55.80
28628;BME280;15815;46.760;19.604;2023-03-13T02:10:50;100590.59;;;3.36;55.55
28628;BME280;15815;46.760;19.604;2023-03-13T02:13:21;100592.91;;;3.34;55.58
28628;BME280;15815;46.760;19.604;2023-03-13T02:16:02;100621.69;;;3.54;55.60
28628;BME280;15815;46.760;19.604;2023-03-13T02:18:52;100573.00;;;3.20;55.44
28628;BME280;15815;46.760;19.604;2023-03-13T02:22:13;100592.22;;;3.37;55.88
28628;BME280;15815;46.760;19.604;2023-03-13T02:25:26;100620.88;;;3.54;56.01
28628;BME280;15815;46.760;19.604;2023-03-13T02:28:41;100585.84;;;3.37;56.00
28628;BME280;15815;46.760;19.604;2023-03-13T02:31:15;100596.25;;;3.40;56.05
28628;BME280;15815;46.760;19.604;2023-03-13T03:03:26;100564.88;;;3.27;56.84
28628;BME280;15815;46.760;19.604;2023-03-13T03:08:52;100578.44;;;3.29;57.03
28628;BME280;15815;46.760;19.604;2023-03-13T03:11:37;100623.56;;;3.50;56.89
28628;BME280;15815;46.760;19.604;2023-03-13T03:14:08;100566.97;;;3.18;57.72
28628;BME280;15815;46.760;19.604;2023-03-13T03:23:08;100614.97;;;3.55;58.23
28628;BME280;15815;46.760;19.604;2023-03-13T03:28:59;100578.56;;;3.20;57.49
28628;BME280;15815;46.760;19.604;2023-03-13T03:31:29;100579.00;;;3.22;57.80
28628;BME280;15815;46.760;19.604;2023-03-13T03:34:02;100592.19;;;3.25;58.53
28628;BME280;15815;46.760;19.604;2023-03-13T03:42:56;100609.00;;;3.17;58.61
28628;BME280;15815;46.760;19.604;2023-03-13T03:45:46;100599.19;;;3.07;59.09
28628;BME280;15815;46.760;19.604;2023-03-13T03:52:13;100583.66;;;3.06;59.29
28628;BME280;15815;46.760;19.604;2023-03-13T03:57:11;100605.66;;;3.11;60.10
28628;BME280;15815;46.760;19.604;2023-03-13T04:00:00;100611.91;;;3.08;59.92
28628;BME280;15815;46.760;19.604;2023-03-13T04:02:49;100573.00;;;2.71;60.83
28628;BME280;15815;46.760;19.604;2023-03-13T04:05:17;100607.13;;;2.84;60.39
28628;BME280;15815;46.760;19.604;2023-03-13T04:07:46;100631.19;;;2.80;60.95
28628;BME280;15815;46.760;19.604;2023-03-13T04:10:12;100633.06;;;2.88;60.64
28628;BME280;15815;46.760;19.604;2023-03-13T04:12:43;100653.88;;;2.94;60.76
28628;BME280;15815;46.760;19.604;2023-03-13T04:15:15;100610.91;;;2.55;61.83
28628;BME280;15815;46.760;19.604;2023-03-13T04:17:46;100591.91;;;2.45;62.03
28628;BME280;15815;46.760;19.604;2023-03-13T04:20:12;100596.28;;;2.46;62.08
28628;BME280;15815;46.760;19.604;2023-03-13T04:22:38;100651.16;;;2.73;61.95
28628;BME280;15815;46.760;19.604;2023-03-13T04:25:04;100609.84;;;2.47;61.99
28628;BME280;15815;46.760;19.604;2023-03-13T04:27:33;100656.72;;;2.73;62.86
28628;BME280;15815;46.760;19.604;2023-03-13T04:30:06;100630.78;;;2.57;62.40
28628;BME280;15815;46.760;19.604;2023-03-13T04:32:34;100613.50;;;2.39;62.29
28628;BME280;15815;46.760;19.604;2023-03-13T04:35:02;100647.56;;;2.61;62.54
28628;BME280;15815;46.760;19.604;2023-03-13T04:37:35;100630.22;;;2.52;63.03
28628;BME280;15815;46.760;19.604;2023-03-13T04:40:06;100639.00;;;2.66;62.51
28628;BME280;15815;46.760;19.604;2023-03-13T04:42:36;100638.69;;;2.67;62.87
28628;BME280;15815;46.760;19.604;2023-03-13T04:48:17;100621.31;;;2.58;63.66
28628;BME280;15815;46.760;19.604;2023-03-13T04:51:11;100654.00;;;2.86;63.65
28628;BME280;15815;46.760;19.604;2023-03-13T04:53:39;100591.94;;;2.57;63.51
28628;BME280;15815;46.760;19.604;2023-03-13T04:56:05;100619.50;;;2.74;63.46
28628;BME280;15815;46.760;19.604;2023-03-13T04:58:30;100613.28;;;2.77;63.72
28628;BME280;15815;46.760;19.604;2023-03-13T05:00:56;100606.75;;;2.73;63.89
28628;BME280;15815;46.760;19.604;2023-03-13T05:03:25;100613.47;;;2.72;63.87
28628;BME280;15815;46.760;19.604;2023-03-13T05:05:51;100618.00;;;2.77;63.87
28628;BME280;15815;46.760;19.604;2023-03-13T05:08:17;100589.63;;;2.59;64.21
28628;BME280;15815;46.760;19.604;2023-03-13T05:10:43;100610.38;;;2.74;63.61
28628;BME280;15815;46.760;19.604;2023-03-13T05:13:18;100648.56;;;2.89;63.83
28628;BME280;15815;46.760;19.604;2023-03-13T05:15:44;100615.44;;;2.72;63.66
28628;BME280;15815;46.760;19.604;2023-03-13T05:18:10;100646.81;;;2.85;63.98
28628;BME280;15815;46.760;19.604;2023-03-13T05:20:36;100633.50;;;2.78;63.59
28628;BME280;15815;46.760;19.604;2023-03-13T05:23:02;100669.50;;;2.99;63.34
28628;BME280;15815;46.760;19.604;2023-03-13T05:25:28;100650.06;;;2.87;63.84
28628;BME280;15815;46.760;19.604;2023-03-13T05:27:56;100666.72;;;2.99;63.92
28628;BME280;15815;46.760;19.604;2023-03-13T05:30:22;100657.47;;;2.95;63.57
28628;BME280;15815;46.760;19.604;2023-03-13T05:32:47;100636.63;;;2.89;63.10
28628;BME280;15815;46.760;19.604;2023-03-13T05:35:13;100664.56;;;3.17;62.64
28628;BME280;15815;46.760;19.604;2023-03-13T05:37:39;100693.63;;;3.44;62.57
28628;BME280;15815;46.760;19.604;2023-03-13T05:40:05;100641.06;;;3.26;62.60
28628;BME280;15815;46.760;19.604;2023-03-13T05:42:31;100666.50;;;3.53;62.52
28628;BME280;15815;46.760;19.604;2023-03-13T05:45:04;100661.66;;;3.62;62.20
28628;BME280;15815;46.760;19.604;2023-03-13T05:47:32;100689.69;;;4.09;61.75
28628;BME280;15815;46.760;19.604;2023-03-13T05:49:58;100671.97;;;4.14;61.24
28628;BME280;15815;46.760;19.604;2023-03-13T05:52:23;100668.75;;;4.40;60.86
28628;BME280;15815;46.760;19.604;2023-03-13T05:54:50;100671.66;;;4.59;60.44
28628;BME280;15815;46.760;19.604;2023-03-13T05:57:15;100680.19;;;4.94;59.55
28628;BME280;15815;46.760;19.604;2023-03-13T05:59:41;100696.03;;;5.21;59.07
28628;BME280;15815;46.760;19.604;2023-03-13T06:02:08;100662.38;;;5.14;58.46
28628;BME280;15815;46.760;19.604;2023-03-13T06:04:36;100674.59;;;5.41;58.06
28628;BME280;15815;46.760;19.604;2023-03-13T06:07:09;100683.88;;;5.30;56.92
28628;BME280;15815;46.760;19.604;2023-03-13T06:09:34;100670.16;;;5.21;57.40
28628;BME280;15815;46.760;19.604;2023-03-13T06:12:00;100688.63;;;5.76;56.68
28628;BME280;15815;46.760;19.604;2023-03-13T06:14:26;100689.66;;;6.23;54.65
28628;BME280;15815;46.760;19.604;2023-03-13T06:16:54;100674.03;;;6.37;54.55
28628;BME280;15815;46.760;19.604;2023-03-13T06:19:22;100690.47;;;6.23;54.73
28628;BME280;15815;46.760;19.604;2023-03-13T06:21:50;100674.47;;;5.85;54.00
28628;BME280;15815;46.760;19.604;2023-03-13T06:24:15;100692.00;;;5.85;55.00
28628;BME280;15815;46.760;19.604;2023-03-13T06:26:48;100687.81;;;5.76;54.57
28628;BME280;15815;46.760;19.604;2023-03-13T06:29:14;100696.78;;;5.85;54.63
28628;BME280;15815;46.760;19.604;2023-03-13T06:31:40;100684.66;;;6.12;54.21
28628;BME280;15815;46.760;19.604;2023-03-13T06:34:13;100689.28;;;6.82;52.74
28628;BME280;15815;46.760;19.604;2023-03-13T06:36:39;100686.06;;;7.03;51.61
28628;BME280;15815;46.760;19.604;2023-03-13T06:39:05;100704.53;;;7.07;51.94
28628;BME280;15815;46.760;19.604;2023-03-13T06:41:34;100723.81;;;7.12;51.66
28628;BME280;15815;46.760;19.604;2023-03-13T06:43:59;100689.41;;;7.12;51.08
28628;BME280;15815;46.760;19.604;2023-03-13T06:46:25;100674.50;;;7.50;50.51
28628;BME280;15815;46.760;19.604;2023-03-13T06:48:53;100708.03;;;8.89;47.90
28628;BME280;15815;46.760;19.604;2023-03-13T06:51:21;100681.09;;;9.18;48.33
28628;BME280;15815;46.760;19.604;2023-03-13T06:53:47;100681.94;;;9.70;46.68
28628;BME280;15815;46.760;19.604;2023-03-13T06:56:13;100690.22;;;10.11;45.54
28628;BME280;15815;46.760;19.604;2023-03-13T06:58:41;100677.22;;;10.58;44.60
28628;BME280;15815;46.760;19.604;2023-03-13T07:01:08;100668.13;;;10.96;44.79
28628;BME280;15815;46.760;19.604;2023-03-13T07:03:38;100687.00;;;11.06;42.00
28628;BME280;15815;46.760;19.604;2023-03-13T07:06:07;100682.63;;;11.23;42.58
28628;BME280;15815;46.760;19.604;2023-03-13T07:08:34;100676.59;;;11.42;41.29
28628;BME280;15815;46.760;19.604;2023-03-13T07:11:02;100674.50;;;12.25;44.01
28628;BME280;15815;46.760;19.604;2023-03-13T07:13:29;100667.88;;;12.71;41.62
28628;BME280;15815;46.760;19.604;2023-03-13T07:15:59;100660.25;;;12.64;38.39
28628;BME280;15815;46.760;19.604;2023-03-13T07:18:25;100638.22;;;12.37;38.98
28628;BME280;15815;46.760;19.604;2023-03-13T07:20:52;100656.09;;;12.90;39.63
28628;BME280;15815;46.760;19.604;2023-03-13T07:23:17;100643.72;;;12.69;37.29
28628;BME280;15815;46.760;19.604;2023-03-13T07:25:53;100646.88;;;12.79;36.80
28628;BME280;15815;46.760;19.604;2023-03-13T07:28:19;100656.31;;;13.20;37.67
28628;BME280;15815;46.760;19.604;2023-03-13T07:30:45;100666.22;;;13.46;36.53
28628;BME280;15815;46.760;19.604;2023-03-13T07:33:14;100632.78;;;13.82;36.18
28628;BME280;15815;46.760;19.604;2023-03-13T07:35:39;100649.50;;;13.63;33.79
28628;BME280;15815;46.760;19.604;2023-03-13T07:38:05;100638.75;;;13.50;35.20
28628;BME280;15815;46.760;19.604;2023-03-13T07:40:31;100651.88;;;13.68;34.53
28628;BME280;15815;46.760;19.604;2023-03-13T07:42:56;100637.38;;;13.66;34.03
28628;BME280;15815;46.760;19.604;2023-03-13T07:45:22;100653.25;;;14.31;33.46
28628;BME280;15815;46.760;19.604;2023-03-13T07:47:49;100650.44;;;14.92;33.71
28628;BME280;15815;46.760;19.604;2023-03-13T07:50:15;100640.16;;;14.75;33.01
28628;BME280;15815;46.760;19.604;2023-03-13T07:52:43;100645.34;;;15.10;33.52
28628;BME280;15815;46.760;19.604;2023-03-13T07:55:09;100633.91;;;15.18;32.08
28628;BME280;15815;46.760;19.604;2023-03-13T07:57:34;100650.44;;;15.46;31.64
28628;BME280;15815;46.760;19.604;2023-03-13T08:00:00;100646.44;;;15.17;31.72
28628;BME280;15815;46.760;19.604;2023-03-13T08:02:26;100653.66;;;15.71;31.14
28628;BME280;15815;46.760;19.604;2023-03-13T08:04:52;100669.94;;;16.11;30.91
28628;BME280;15815;46.760;19.604;2023-03-13T08:07:17;100641.06;;;16.16;30.05
28628;BME280;15815;46.760;19.604;2023-03-13T08:09:44;100635.56;;;16.28;29.59
28628;BME280;15815;46.760;19.604;2023-03-13T08:12:10;100636.88;;;16.24;29.72
28628;BME280;15815;46.760;19.604;2023-03-13T08:14:35;100632.59;;;16.55;29.96
28628;BME280;15815;46.760;19.604;2023-03-13T08:17:04;100633.31;;;16.79;29.00
28628;BME280;15815;46.760;19.604;2023-03-13T08:19:30;100618.31;;;16.79;29.02
28628;BME280;15815;46.760;19.604;2023-03-13T08:21:55;100619.13;;;16.95;28.80
28628;BME280;15815;46.760;19.604;2023-03-13T08:24:24;100611.56;;;16.73;28.36
28628;BME280;15815;46.760;19.604;2023-03-13T08:26:50;100614.91;;;17.04;28.17
28628;BME280;15815;46.760;19.604;2023-03-13T08:29:15;100607.47;;;17.42;28.05
28628;BME280;15815;46.760;19.604;2023-03-13T08:31:44;100601.97;;;17.68;27.04
28628;BME280;15815;46.760;19.604;2023-03-13T08:34:11;100589.31;;;17.85;27.56
28628;BME280;15815;46.760;19.604;2023-03-13T08:36:37;100595.88;;;18.40;27.29
28628;BME280;15815;46.760;19.604;2023-03-13T08:39:14;100600.41;;;18.79;26.83
28628;BME280;15815;46.760;19.604;2023-03-13T08:41:40;100581.84;;;18.74;26.51
28628;BME280;15815;46.760;19.604;2023-03-13T08:44:08;100583.81;;;18.61;26.04
28628;BME280;15815;46.760;19.604;2023-03-13T08:46:35;100579.22;;;18.80;25.39
28628;BME280;15815;46.760;19.604;2023-03-13T08:49:05;100585.69;;;19.31;25.88
28628;BME280;15815;46.760;19.604;2023-03-13T08:51:31;100555.47;;;19.34;25.71
28628;BME280;15815;46.760;19.604;2023-03-13T08:53:57;100583.81;;;19.63;24.81
28628;BME280;15815;46.760;19.604;2023-03-13T08:56:25;100565.59;;;19.48;25.34
28628;BME280;15815;46.760;19.604;2023-03-13T08:59:03;100569.34;;;20.14;25.19
28628;BME280;15815;46.760;19.604;2023-03-13T09:01:31;100574.44;;;20.62;24.71
28628;BME280;15815;46.760;19.604;2023-03-13T09:03:56;100577.53;;;20.02;23.95
28628;BME280;15815;46.760;19.604;2023-03-13T09:06:22;100546.84;;;20.16;23.87
28628;BME280;15815;46.760;19.604;2023-03-13T09:08:48;100576.69;;;20.67;24.17
28628;BME280;15815;46.760;19.604;2023-03-13T09:11:19;100598.28;;;20.03;23.73
28628;BME280;15815;46.760;19.604;2023-03-13T09:13:47;100584.84;;;19.43;23.64
28628;BME280;15815;46.760;19.604;2023-03-13T09:16:18;100558.22;;;19.72;23.66
28628;BME280;15815;46.760;19.604;2023-03-13T09:18:48;100544.13;;;20.34;23.74
28628;BME280;15815;46.760;19.604;2023-03-13T09:21:20;100561.69;;;20.54;23.02
28628;BME280;15815;46.760;19.604;2023-03-13T09:23:46;100571.03;;;20.77;23.19
28628;BME280;15815;46.760;19.604;2023-03-13T09:26:12;100568.31;;;20.73;22.51
28628;BME280;15815;46.760;19.604;2023-03-13T09:28:42;100549.88;;;21.05;22.72
28628;BME280;15815;46.760;19.604;2023-03-13T09:31:11;100593.09;;;21.16;22.09
28628;BME280;15815;46.760;19.604;2023-03-13T09:33:37;100570.34;;;21.53;22.41
28628;BME280;15815;46.760;19.604;2023-03-13T09:36:03;100552.28;;;21.16;22.14
28628;BME280;15815;46.760;19.604;2023-03-13T09:38:32;100574.41;;;21.24;22.22
28628;BME280;15815;46.760;19.604;2023-03-13T09:43:58;100569.38;;;21.38;22.11
28628;BME280;15815;46.760;19.604;2023-03-13T09:49:06;100557.13;;;20.88;22.67
28628;BME280;15815;46.760;19.604;2023-03-13T09:51:37;100538.25;;;21.85;22.70
28628;BME280;15815;46.760;19.604;2023-03-13T09:54:12;100552.84;;;22.42;22.43
28628;BME280;15815;46.760;19.604;2023-03-13T09:56:46;100530.47;;;22.13;21.93
28628;BME280;15815;46.760;19.604;2023-03-13T10:01:57;100541.28;;;21.73;22.05
28628;BME280;15815;46.760;19.604;2023-03-13T10:04:29;100528.22;;;22.27;21.63
28628;BME280;15815;46.760;19.604;2023-03-13T10:07:01;100529.78;;;21.36;22.51
28628;BME280;15815;46.760;19.604;2023-03-13T10:09:32;100525.25;;;20.98;22.93
28628;BME280;15815;46.760;19.604;2023-03-13T10:12:16;100542.91;;;20.66;22.90
28628;BME280;15815;46.760;19.604;2023-03-13T10:17:35;100496.47;;;21.60;22.97
28628;BME280;15815;46.760;19.604;2023-03-13T10:23:28;100519.34;;;22.06;21.95
28628;BME280;15815;46.760;19.604;2023-03-13T10:25:59;100504.94;;;22.43;22.08
28628;BME280;15815;46.760;19.604;2023-03-13T10:28:25;100492.09;;;22.71;21.83
28628;BME280;15815;46.760;19.604;2023-03-13T10:31:17;100486.38;;;22.71;22.30
28628;BME280;15815;46.760;19.604;2023-03-13T10:33:50;100494.13;;;22.89;21.85
28628;BME280;15815;46.760;19.604;2023-03-13T10:36:18;100482.81;;;22.52;21.61
28628;BME280;15815;46.760;19.604;2023-03-13T10:38:49;100469.59;;;22.55;21.34
28628;BME280;15815;46.760;19.604;2023-03-13T10:41:40;100481.44;;;22.81;21.05
28628;BME280;15815;46.760;19.604;2023-03-13T10:44:18;100464.78;;;22.61;21.75
28628;BME280;15815;46.760;19.604;2023-03-13T10:46:47;100462.19;;;22.81;21.93
28628;BME280;15815;46.760;19.604;2023-03-13T10:49:17;100456.28;;;23.09;21.85
28628;BME280;15815;46.760;19.604;2023-03-13T10:51:47;100439.25;;;23.29;21.45
28628;BME280;15815;46.760;19.604;2023-03-13T10:54:34;100476.16;;;23.12;21.23
28628;BME280;15815;46.760;19.604;2023-03-13T10:57:28;100482.72;;;22.71;21.78
28628;BME280;15815;46.760;19.604;2023-03-13T10:59:57;100470.84;;;23.20;21.60
28628;BME280;15815;46.760;19.604;2023-03-13T11:02:34;100474.50;;;22.97;21.79
28628;BME280;15815;46.760;19.604;2023-03-13T11:11:00;100423.94;;;22.51;21.78
28628;BME280;15815;46.760;19.604;2023-03-13T11:13:44;100436.88;;;23.04;22.16
28628;BME280;15815;46.760;19.604;2023-03-13T11:16:23;100453.03;;;22.92;22.51
28628;BME280;15815;46.760;19.604;2023-03-13T11:19:15;100437.53;;;22.66;22.37
28628;BME280;15815;46.760;19.604;2023-03-13T11:33:52;100446.66;;;20.94;24.62
28628;BME280;15815;46.760;19.604;2023-03-13T11:36:46;100445.97;;;20.81;25.55
28628;BME280;15815;46.760;19.604;2023-03-13T11:42:38;100422.00;;;20.69;25.46
28628;BME280;15815;46.760;19.604;2023-03-13T12:01:37;100400.94;;;18.82;27.69
28628;BME280;15815;46.760;19.604;2023-03-13T12:09:59;100339.69;;;18.78;27.72
28628;BME280;15815;46.760;19.604;2023-03-13T12:12:44;100379.66;;;19.09;28.35
28628;BME280;15815;46.760;19.604;2023-03-13T12:15:24;100382.19;;;19.07;28.22
28628;BME280;15815;46.760;19.604;2023-03-13T12:23:11;100362.06;;;18.67;29.63
28628;BME280;15815;46.760;19.604;2023-03-13T12:26:02;100332.69;;;18.32;29.60
28628;BME280;15815;46.760;19.604;2023-03-13T12:29:02;100364.00;;;18.44;29.30
28628;BME280;15815;46.760;19.604;2023-03-13T12:31:39;100360.03;;;18.42;29.41
28628;BME280;15815;46.760;19.604;2023-03-13T12:34:21;100331.31;;;18.49;29.48
28628;BME280;15815;46.760;19.604;2023-03-13T12:37:11;100321.66;;;18.34;29.46
28628;BME280;15815;46.760;19.604;2023-03-13T12:39:44;100295.88;;;17.90;29.85
28628;BME280;15815;46.760;19.604;2023-03-13T12:42:35;100301.88;;;18.05;30.22
28628;BME280;15815;46.760;19.604;2023-03-13T12:45:07;100300.75;;;18.02;29.98
28628;BME280;15815;46.760;19.604;2023-03-13T12:59:39;100327.56;;;17.63;31.63
28628;BME280;15815;46.760;19.604;2023-03-13T13:02:20;100293.78;;;17.40;31.58
28628;BME280;15815;46.760;19.604;2023-03-13T13:04:50;100293.03;;;17.23;31.69
28628;BME280;15815;46.760;19.604;2023-03-13T13:07:28;100263.69;;;17.01;32.21
28628;BME280;15815;46.760;19.604;2023-03-13T13:12:29;100288.69;;;17.06;32.59
28628;BME280;15815;46.760;19.604;2023-03-13T13:14:57;100268.72;;;17.09;32.30
28628;BME280;15815;46.760;19.604;2023-03-13T13:17:42;100242.84;;;16.78;32.62
28628;BME280;15815;46.760;19.604;2023-03-13T13:32:50;100233.56;;;16.90;33.35
28628;BME280;15815;46.760;19.604;2023-03-13T13:35:35;100258.25;;;17.06;33.45
28628;BME280;15815;46.760;19.604;2023-03-13T13:43:39;100256.16;;;17.48;33.60
28628;BME280;15815;46.760;19.604;2023-03-13T13:46:27;100254.09;;;17.36;33.96
28628;BME280;15815;46.760;19.604;2023-03-13T13:51:39;100225.84;;;16.91;34.50
28628;BME280;15815;46.760;19.604;2023-03-13T13:57:15;100231.81;;;17.22;34.43
28628;BME280;15815;46.760;19.604;2023-03-13T14:00:13;100186.31;;;16.96;34.41
28628;BME280;15815;46.760;19.604;2023-03-13T14:02:52;100179.53;;;17.19;34.66
28628;BME280;15815;46.760;19.604;2023-03-13T14:05:21;100184.44;;;17.19;34.88
28628;BME280;15815;46.760;19.604;2023-03-13T14:07:52;100182.03;;;17.17;35.04
28628;BME280;15815;46.760;19.604;2023-03-13T14:10:38;100164.31;;;17.01;35.26
28628;BME280;15815;46.760;19.604;2023-03-13T14:13:23;100194.19;;;17.05;35.13
28628;BME280;15815;46.760;19.604;2023-03-13T14:15:56;100168.59;;;16.80;35.62
28628;BME280;15815;46.760;19.604;2023-03-13T14:18:23;100214.19;;;17.02;35.63
28628;BME280;15815;46.760;19.604;2023-03-13T14:23:39;100189.03;;;16.87;35.39
28628;BME280;15815;46.760;19.604;2023-03-13T14:26:22;100184.03;;;16.79;36.01
28628;BME280;15815;46.760;19.604;2023-03-13T14:28:58;100195.84;;;16.90;35.74
28628;BME280;15815;46.760;19.604;2023-03-13T14:31:30;100171.56;;;16.60;35.80
28628;BME280;15815;46.760;19.604;2023-03-13T14:33:59;100156.81;;;16.65;36.26
28628;BME280;15815;46.760;19.604;2023-03-13T14:36:26;100149.81;;;16.69;35.98
28628;BME280;15815;46.760;19.604;2023-03-13T14:38:55;100162.81;;;16.83;36.60
28628;BME280;15815;46.760;19.604;2023-03-13T14:41:45;100152.06;;;16.62;36.63
28628;BME280;15815;46.760;19.604;2023-03-13T14:44:26;100103.94;;;16.17;36.73
28628;BME280;15815;46.760;19.604;2023-03-13T14:49:59;100120.22;;;16.13;36.84
28628;BME280;15815;46.760;19.604;2023-03-13T14:52:29;100126.31;;;16.27;37.09
28628;BME280;15815;46.760;19.604;2023-03-13T14:55:03;100147.72;;;16.45;36.82
28628;BME280;15815;46.760;19.604;2023-03-13T14:57:34;100102.97;;;16.07;36.56
28628;BME280;15815;46.760;19.604;2023-03-13T15:08:23;100107.19;;;15.86;37.16
28628;BME280;15815;46.760;19.604;2023-03-13T15:10:49;100114.81;;;15.89;37.73
28628;BME280;15815;46.760;19.604;2023-03-13T15:15:48;100103.78;;;15.62;37.98
28628;BME280;15815;46.760;19.604;2023-03-13T15:18:28;100080.75;;;15.44;38.28
28628;BME280;15815;46.760;19.604;2023-03-13T15:21:23;100083.41;;;15.35;38.49
28628;BME280;15815;46.760;19.604;2023-03-13T15:23:52;100098.72;;;15.37;38.61
28628;BME280;15815;46.760;19.604;2023-03-13T15:26:22;100110.84;;;15.38;38.92
28628;BME280;15815;46.760;19.604;2023-03-13T15:28:48;100106.22;;;15.28;38.87
28628;BME280;15815;46.760;19.604;2023-03-13T15:31:14;100101.81;;;15.27;39.04
28628;BME280;15815;46.760;19.604;2023-03-13T15:33:41;100093.31;;;15.27;38.86
28628;BME280;15815;46.760;19.604;2023-03-13T15:36:07;100079.88;;;15.14;39.18
28628;BME280;15815;46.760;19.604;2023-03-13T15:38:38;100106.88;;;15.35;39.65
28628;BME280;15815;46.760;19.604;2023-03-13T15:41:04;100061.28;;;14.97;39.27
28628;BME280;15815;46.760;19.604;2023-03-13T15:43:30;100061.81;;;14.92;39.28
28628;BME280;15815;46.760;19.604;2023-03-13T15:45:58;100047.56;;;14.79;39.51
28628;BME280;15815;46.760;19.604;2023-03-13T15:48:26;100082.22;;;15.00;39.86
28628;BME280;15815;46.760;19.604;2023-03-13T15:50:55;100082.84;;;14.91;40.31
28628;BME280;15815;46.760;19.604;2023-03-13T15:53:26;100092.84;;;14.96;40.29
28628;BME280;15815;46.760;19.604;2023-03-13T15:55:54;100086.56;;;14.88;40.07
28628;BME280;15815;46.760;19.604;2023-03-13T15:58:20;100092.88;;;14.76;40.30
28628;BME280;15815;46.760;19.604;2023-03-13T16:00:59;100089.69;;;14.74;40.61
28628;BME280;15815;46.760;19.604;2023-03-13T16:03:27;100088.00;;;14.60;40.81
28628;BME280;15815;46.760;19.604;2023-03-13T16:05:55;100057.75;;;14.37;41.50
28628;BME280;15815;46.760;19.604;2023-03-13T16:08:29;100059.88;;;14.33;41.20
28628;BME280;15815;46.760;19.604;2023-03-13T16:10:55;100048.50;;;14.17;41.21
28628;BME280;15815;46.760;19.604;2023-03-13T16:13:20;100055.81;;;14.14;41.65
28628;BME280;15815;46.760;19.604;2023-03-13T16:15:46;100063.50;;;14.14;41.37
28628;BME280;15815;46.760;19.604;2023-03-13T16:18:17;100049.25;;;14.01;41.75
28628;BME280;15815;46.760;19.604;2023-03-13T16:20:47;100075.75;;;14.07;42.05
28628;BME280;15815;46.760;19.604;2023-03-13T16:23:13;100039.16;;;13.80;42.17
28628;BME280;15815;46.760;19.604;2023-03-13T16:25:39;100028.53;;;13.65;42.54
28628;BME280;15815;46.760;19.604;2023-03-13T16:28:05;100048.75;;;13.63;42.66
28628;BME280;15815;46.760;19.604;2023-03-13T16:30:33;100061.28;;;13.62;43.14
28628;BME280;15815;46.760;19.604;2023-03-13T16:32:59;100039.06;;;13.41;43.41
28628;BME280;15815;46.760;19.604;2023-03-13T16:35:26;100033.91;;;13.36;43.40
28628;BME280;15815;46.760;19.604;2023-03-13T16:37:53;100036.88;;;13.28;43.68
28628;BME280;15815;46.760;19.604;2023-03-13T16:40:22;100042.59;;;13.25;44.15